Time;durP1;ratioP1;P1;durP2;ratioP2;P2;SDS_P1;SDS_P2;PMS_P1;PMS_P2;Temp;Humidity;BMP_temperature;BMP_pressure;BME280_temperature;BME280_humidity;BME280_pressure;Samples;Min_cycle;Max_cycle;Signal;HPM_P1;HPM_P2
2021/12/10 00:02:12;;;;;;;94.80;38.90;;;1.80;99.90;;;;;;5016584;28;20177;-78
2021/12/10 00:04:41;;;;;;;85.23;35.77;;;1.80;99.90;;;;;;4995806;28;20189;-79
2021/12/10 00:07:13;;;;;;;85.30;37.73;;;1.80;99.90;;;;;;4997049;28;20204;-78
2021/12/10 00:09:50;;;;;;;84.50;36.90;;;1.80;99.90;;;;;;4996307;28;20204;-78
2021/12/10 00:12:30;;;;;;;88.67;38.37;;;1.90;99.90;;;;;;4995916;28;20300;-80
2021/12/10 00:14:58;;;;;;;91.07;38.07;;;1.90;99.90;;;;;;5009529;28;20185;-79
2021/12/10 00:17:25;;;;;;;88.93;37.70;;;1.80;99.90;;;;;;5012751;28;20212;-79
2021/12/10 00:19:57;;;;;;;89.93;37.50;;;1.80;99.90;;;;;;5010926;28;20205;-79
2021/12/10 00:22:38;;;;;;;89.33;38.87;;;1.80;99.90;;;;;;5013437;28;20206;-78
2021/12/10 00:25:08;;;;;;;92.93;39.50;;;1.80;99.90;;;;;;5013600;28;20197;-77
2021/12/10 00:27:34;;;;;;;84.17;37.07;;;1.90;99.90;;;;;;5030524;28;20227;-79
2021/12/10 00:30:12;;;;;;;82.67;36.30;;;2.00;99.90;;;;;;5014264;28;20185;-80
2021/12/10 00:32:54;;;;;;;84.90;38.00;;;2.00;99.90;;;;;;5013874;28;20253;-79
2021/12/10 00:35:24;;;;;;;85.70;36.47;;;2.00;99.90;;;;;;5013499;28;20178;-79
2021/12/10 00:37:50;;;;;;;81.03;36.70;;;2.20;99.90;;;;;;5045768;28;20776;-77
2021/12/10 00:40:18;;;;;;;79.80;36.47;;;2.00;99.90;;;;;;5013296;28;20189;-78
2021/12/10 00:42:44;;;;;;;82.40;37.77;;;2.00;99.90;;;;;;5022334;28;20178;-77
2021/12/10 00:45:13;;;;;;;83.50;37.27;;;1.90;99.90;;;;;;5015321;28;20255;-78
2021/12/10 00:47:39;;;;;;;90.17;38.83;;;1.80;99.90;;;;;;5016366;28;20297;-80
2021/12/10 00:50:09;;;;;;;81.17;37.03;;;1.70;99.90;;;;;;5028522;28;20189;-79
2021/12/10 00:52:35;;;;;;;82.90;35.47;;;1.80;99.90;;;;;;5013677;28;20189;-79
2021/12/10 00:55:05;;;;;;;79.03;35.17;;;2.00;99.90;;;;;;5013389;28;20208;-78
2021/12/10 00:57:31;;;;;;;83.73;38.03;;;2.00;99.90;;;;;;5014457;28;20221;-78
2021/12/10 00:59:58;;;;;;;79.70;36.67;;;2.00;99.90;;;;;;5015062;28;20188;-78
2021/12/10 01:02:24;;;;;;;80.73;35.10;;;1.90;99.90;;;;;;5012847;28;20188;-79
2021/12/10 01:04:56;;;;;;;83.63;36.33;;;1.90;99.90;;;;;;5013091;28;20246;-78
2021/12/10 01:07:26;;;;;;;84.57;36.73;;;1.90;99.90;;;;;;5013394;28;20224;-80
2021/12/10 01:09:56;;;;;;;82.37;37.33;;;2.00;99.90;;;;;;5010215;28;20197;-78
2021/12/10 01:12:40;;;;;;;78.40;36.00;;;2.10;99.90;;;;;;5011725;28;20248;-79
2021/12/10 01:28:54;;;;;;;76.90;34.90;;;1.60;99.90;;;;;;5020805;28;20182;-81
2021/12/10 01:31:20;;;;;;;77.53;34.93;;;1.70;99.90;;;;;;5012188;28;20664;-81
2021/12/10 01:33:49;;;;;;;79.47;35.97;;;1.60;99.90;;;;;;5014869;28;20178;-80
2021/12/10 01:36:20;;;;;;;74.73;34.20;;;1.60;99.90;;;;;;5001251;28;20197;-80
2021/12/10 01:38:48;;;;;;;84.07;36.77;;;1.70;99.90;;;;;;5014316;28;20313;-77
2021/12/10 01:41:17;;;;;;;77.90;35.83;;;1.70;99.90;;;;;;5012353;28;20201;-77
2021/12/10 01:43:44;;;;;;;76.63;35.40;;;1.60;99.90;;;;;;4996517;28;20179;-78
2021/12/10 01:46:14;;;;;;;72.30;32.87;;;1.60;99.90;;;;;;5004769;28;20209;-80
2021/12/10 01:48:48;;;;;;;74.40;33.10;;;1.60;99.90;;;;;;4995771;28;20213;-78
2021/12/10 01:51:17;;;;;;;69.17;34.20;;;1.70;99.90;;;;;;5012267;28;20585;-80
2021/12/10 01:53:51;;;;;;;74.50;34.23;;;1.70;99.90;;;;;;5011268;28;20236;-79
2021/12/10 01:56:23;;;;;;;73.47;35.03;;;1.80;99.90;;;;;;5014326;28;20200;-80
2021/12/10 01:58:50;;;;;;;73.47;33.97;;;1.80;99.90;;;;;;4999057;28;20684;-79
2021/12/10 02:01:25;;;;;;;81.47;34.80;;;1.80;99.90;;;;;;5013816;28;20672;-78
2021/12/10 02:03:54;;;;;;;77.73;34.47;;;1.70;99.90;;;;;;5004245;28;20257;-78
2021/12/10 02:06:22;;;;;;;70.67;32.23;;;1.70;99.90;;;;;;5018335;28;20193;-78
2021/12/10 02:08:53;;;;;;;70.60;33.80;;;1.80;99.90;;;;;;5001296;28;20324;-79
2021/12/10 02:11:22;;;;;;;77.43;34.53;;;1.80;99.90;;;;;;5008298;28;20260;-79
2021/12/10 02:13:49;;;;;;;74.00;32.43;;;1.80;99.90;;;;;;5003358;28;20704;-77
2021/12/10 02:16:15;;;;;;;74.70;32.80;;;1.80;99.90;;;;;;5015197;28;20194;-77
2021/12/10 02:18:41;;;;;;;74.30;33.57;;;1.70;99.90;;;;;;5017668;28;20209;-77
2021/12/10 02:21:07;;;;;;;77.20;34.63;;;1.70;99.90;;;;;;4999698;28;20196;-77
2021/12/10 02:23:40;;;;;;;78.80;34.37;;;1.70;99.90;;;;;;5017949;28;20177;-77
2021/12/10 02:26:08;;;;;;;78.13;34.83;;;1.70;99.90;;;;;;5008607;28;20296;-76
2021/12/10 02:28:35;;;;;;;77.87;33.23;;;1.80;99.90;;;;;;5017096;28;20182;-77
2021/12/10 02:31:01;;;;;;;71.37;32.03;;;1.70;99.90;;;;;;5017801;28;20178;-78
2021/12/10 02:33:30;;;;;;;79.80;34.23;;;1.70;99.90;;;;;;5020113;28;20176;-79
2021/12/10 02:35:56;;;;;;;72.20;32.63;;;1.80;99.90;;;;;;5000914;28;20190;-76
2021/12/10 02:38:22;;;;;;;80.67;33.97;;;1.80;99.90;;;;;;5004546;28;20789;-80
2021/12/10 02:40:50;;;;;;;75.03;34.83;;;1.70;99.90;;;;;;5015774;28;20182;-78
2021/12/10 02:43:19;;;;;;;71.97;34.33;;;1.60;99.90;;;;;;5003689;28;20186;-76
2021/12/10 02:45:47;;;;;;;73.53;34.17;;;1.60;99.90;;;;;;5013862;28;20204;-77
2021/12/10 02:48:13;;;;;;;71.60;33.00;;;1.60;99.90;;;;;;5001307;28;20181;-76
2021/12/10 02:50:39;;;;;;;74.87;33.73;;;1.60;99.90;;;;;;5016167;28;20541;-76
2021/12/10 02:53:07;;;;;;;79.40;35.87;;;1.70;99.90;;;;;;5000713;28;20171;-77
2021/12/10 02:55:35;;;;;;;78.37;33.70;;;1.60;99.90;;;;;;5014153;28;20317;-77
2021/12/10 02:58:05;;;;;;;75.67;34.50;;;1.70;99.90;;;;;;5001641;28;20206;-77
2021/12/10 03:00:36;;;;;;;75.47;33.83;;;1.70;99.90;;;;;;5000996;28;20185;-77
2021/12/10 03:03:05;;;;;;;77.13;33.97;;;1.60;99.90;;;;;;5003762;28;20182;-77
2021/12/10 03:05:30;;;;;;;72.77;33.50;;;1.60;99.90;;;;;;5016038;28;20170;-76
2021/12/10 03:07:56;;;;;;;75.63;34.90;;;1.60;99.90;;;;;;4998945;28;20205;-76
2021/12/10 03:10:25;;;;;;;84.77;36.83;;;1.60;99.90;;;;;;5015179;28;20173;-76
2021/12/10 03:12:51;;;;;;;80.17;36.07;;;1.50;99.90;;;;;;4997256;28;20208;-77
2021/12/10 03:15:21;;;;;;;77.80;34.90;;;1.50;99.90;;;;;;4997118;28;20261;-78
2021/12/10 03:17:48;;;;;;;77.40;35.87;;;1.60;99.90;;;;;;5029894;28;20206;-77
2021/12/10 03:20:17;;;;;;;82.03;35.97;;;1.70;99.90;;;;;;5012251;28;20241;-77
2021/12/10 03:22:43;;;;;;;75.27;34.90;;;1.60;99.90;;;;;;4996415;28;20182;-79
2021/12/10 03:25:13;;;;;;;79.83;34.67;;;1.70;99.90;;;;;;4998937;28;20632;-79
2021/12/10 03:27:39;;;;;;;76.17;35.07;;;1.70;99.90;;;;;;5014268;28;20597;-77
2021/12/10 03:30:09;;;;;;;69.77;33.57;;;1.60;99.90;;;;;;4999021;28;20273;-77
2021/12/10 03:32:37;;;;;;;76.70;35.00;;;1.60;99.90;;;;;;5013629;28;20182;-78
2021/12/10 03:35:09;;;;;;;77.83;34.43;;;1.50;99.90;;;;;;4998429;28;20186;-78
2021/12/10 03:37:36;;;;;;;78.43;35.30;;;1.50;99.90;;;;;;5002177;28;20213;-78
2021/12/10 03:40:15;;;;;;;83.30;34.87;;;1.40;99.90;;;;;;5022498;28;20183;-81
2021/12/10 03:42:42;;;;;;;76.33;34.43;;;1.40;99.90;;;;;;4996951;28;20217;-78
2021/12/10 03:45:11;;;;;;;74.47;35.40;;;1.50;99.90;;;;;;4995993;28;20174;-77
2021/12/10 03:47:37;;;;;;;74.63;33.73;;;1.70;99.90;;;;;;4997044;28;20198;-78
2021/12/10 03:50:05;;;;;;;73.30;32.73;;;1.60;99.90;;;;;;4997106;28;20264;-78
2021/12/10 03:52:34;;;;;;;75.33;33.70;;;1.60;99.90;;;;;;4998667;28;20178;-77
2021/12/10 03:55:01;;;;;;;67.03;32.23;;;1.60;99.90;;;;;;5022146;28;20174;-81
2021/12/10 03:57:27;;;;;;;71.07;33.73;;;1.60;99.90;;;;;;4994408;28;20214;-78
2021/12/10 03:59:53;;;;;;;70.43;32.60;;;1.50;99.90;;;;;;5026332;28;20213;-80
2021/12/10 04:02:19;;;;;;;76.33;33.83;;;1.50;99.90;;;;;;5013273;28;20196;-77
2021/12/10 04:04:48;;;;;;;75.73;33.63;;;1.50;99.90;;;;;;5030207;28;20232;-78
2021/12/10 04:07:18;;;;;;;74.60;32.53;;;1.50;99.90;;;;;;5013684;28;20244;-77
2021/12/10 04:10:27;;;;;;;72.53;34.40;;;1.40;99.90;;;;;;5013374;28;20716;-77
2021/12/10 04:12:54;;;;;;;75.73;32.30;;;1.40;99.90;;;;;;5013846;28;20193;-78
2021/12/10 04:15:23;;;;;;;65.77;31.23;;;1.40;99.90;;;;;;4996577;28;20185;-78
2021/12/10 04:17:55;;;;;;;70.00;31.47;;;1.40;99.90;;;;;;5013104;28;20268;-80
2021/12/10 04:20:25;;;;;;;60.30;29.23;;;1.50;99.90;;;;;;4998020;28;20174;-77
2021/12/10 04:22:51;;;;;;;66.67;31.43;;;1.60;99.90;;;;;;4997425;28;20211;-79
2021/12/10 04:25:20;;;;;;;66.40;30.37;;;1.50;99.90;;;;;;5013188;28;20678;-78
2021/12/10 04:27:59;;;;;;;66.47;29.23;;;1.50;99.90;;;;;;5005766;28;20210;-78
2021/12/10 04:30:27;;;;;;;70.03;29.90;;;1.60;99.90;;;;;;5008700;28;20184;-79
2021/12/10 04:33:14;;;;;;;65.13;30.07;;;1.50;99.90;;;;;;5014701;28;20238;-78
2021/12/10 04:35:40;;;;;;;60.67;27.87;;;1.50;99.90;;;;;;5020554;28;20181;-79
2021/12/10 04:38:05;;;;;;;63.47;28.90;;;1.60;99.90;;;;;;4996042;28;20220;-77
2021/12/10 04:40:32;;;;;;;60.27;28.60;;;1.60;99.90;;;;;;4996904;28;20257;-78
2021/12/10 04:43:03;;;;;;;62.97;28.97;;;1.60;99.90;;;;;;4997122;28;20170;-78
2021/12/10 04:45:28;;;;;;;63.73;28.63;;;1.70;99.90;;;;;;5015560;28;20192;-82
2021/12/10 04:47:54;;;;;;;58.07;28.33;;;1.70;99.90;;;;;;5014184;28;20209;-78
2021/12/10 04:50:23;;;;;;;60.77;28.53;;;1.70;99.90;;;;;;5009095;28;20285;-80
2021/12/10 04:52:49;;;;;;;55.50;27.70;;;1.70;99.90;;;;;;4997934;28;20790;-78
2021/12/10 04:55:19;;;;;;;51.97;27.33;;;1.60;99.90;;;;;;5003644;28;20211;-78
2021/12/10 04:57:45;;;;;;;54.60;27.40;;;1.80;99.90;;;;;;5013797;28;20255;-78
2021/12/10 05:00:17;;;;;;;52.17;25.83;;;1.80;99.90;;;;;;5011764;28;20190;-77
2021/12/10 05:02:44;;;;;;;57.67;27.20;;;1.70;99.90;;;;;;5012476;28;20186;-79
2021/12/10 05:05:11;;;;;;;58.30;28.30;;;1.90;99.90;;;;;;5001840;28;20178;-77
2021/12/10 05:07:38;;;;;;;50.83;25.53;;;2.00;99.90;;;;;;5012267;28;20206;-78
2021/12/10 05:10:10;;;;;;;55.30;26.80;;;2.00;99.90;;;;;;4999445;28;20217;-78
2021/12/10 05:12:36;;;;;;;52.23;26.17;;;1.90;99.90;;;;;;5010849;28;20280;-80
2021/12/10 05:15:06;;;;;;;51.20;26.63;;;1.90;99.90;;;;;;5012010;28;20217;-78
2021/12/10 05:17:34;;;;;;;51.83;26.00;;;1.90;99.90;;;;;;5012065;28;20229;-78
2021/12/10 05:20:03;;;;;;;53.20;26.07;;;1.90;99.90;;;;;;4994909;28;20240;-77
2021/12/10 05:22:29;;;;;;;50.37;25.97;;;1.80;99.90;;;;;;5014489;28;20185;-78
2021/12/10 05:24:55;;;;;;;61.77;28.03;;;1.80;99.90;;;;;;5011039;28;20190;-78
2021/12/10 05:27:26;;;;;;;57.90;28.37;;;1.70;99.90;;;;;;5016105;28;20252;-77
2021/12/10 05:29:52;;;;;;;53.53;25.33;;;1.70;99.90;;;;;;5000127;28;20261;-78
2021/12/10 05:32:18;;;;;;;56.53;26.63;;;1.80;99.90;;;;;;4996637;28;20265;-79
2021/12/10 05:34:46;;;;;;;59.27;27.43;;;1.80;99.90;;;;;;4996218;28;20541;-78
2021/12/10 05:37:13;;;;;;;57.47;26.50;;;1.70;99.90;;;;;;4999948;28;20226;-77
2021/12/10 05:39:41;;;;;;;54.67;25.70;;;1.70;99.90;;;;;;5007918;28;20184;-79
2021/12/10 05:42:07;;;;;;;48.73;25.13;;;1.90;99.90;;;;;;4999806;28;20182;-79
2021/12/10 05:44:33;;;;;;;54.80;26.27;;;1.90;99.90;;;;;;4999625;28;20266;-77
2021/12/10 05:46:59;;;;;;;51.57;26.50;;;1.70;99.90;;;;;;4995641;28;20198;-77
2021/12/10 05:49:26;;;;;;;57.30;26.73;;;1.70;99.90;;;;;;5009380;28;20192;-79
2021/12/10 05:51:55;;;;;;;51.83;25.63;;;1.70;99.90;;;;;;5014402;28;20192;-78
2021/12/10 05:54:22;;;;;;;54.57;26.03;;;1.60;99.90;;;;;;5032031;28;20201;-79
2021/12/10 05:56:48;;;;;;;55.37;25.57;;;1.50;99.90;;;;;;4998272;28;20206;-79
2021/12/10 05:59:15;;;;;;;53.30;26.10;;;1.50;99.90;;;;;;4997038;28;20209;-78
2021/12/10 06:01:40;;;;;;;51.67;24.90;;;1.50;99.90;;;;;;4994321;28;20182;-78
2021/12/10 06:04:07;;;;;;;49.73;25.37;;;1.40;99.90;;;;;;5000524;28;20241;-78
2021/12/10 06:06:34;;;;;;;55.37;25.67;;;1.30;99.90;;;;;;5015651;28;20243;-78
2021/12/10 06:09:06;;;;;;;55.67;25.53;;;1.30;99.90;;;;;;5015209;28;20186;-79
2021/12/10 06:11:32;;;;;;;57.50;26.30;;;1.30;99.90;;;;;;5001102;28;20182;-80
2021/12/10 06:13:59;;;;;;;55.33;26.53;;;1.30;99.90;;;;;;5002390;28;20268;-80
2021/12/10 06:16:25;;;;;;;54.03;25.57;;;1.30;99.90;;;;;;4998649;28;20198;-78
2021/12/10 06:18:51;;;;;;;51.77;24.63;;;1.20;99.90;;;;;;5001350;28;20216;-83
2021/12/10 06:21:23;;;;;;;51.33;25.07;;;1.20;99.90;;;;;;4999794;28;20184;-78
2021/12/10 06:23:49;;;;;;;54.60;25.33;;;1.30;99.90;;;;;;4998495;28;20178;-79
2021/12/10 06:26:15;;;;;;;55.10;26.53;;;1.30;99.90;;;;;;5000031;28;20233;-78
2021/12/10 06:28:44;;;;;;;50.20;24.30;;;1.50;99.90;;;;;;5000293;28;20182;-78
2021/12/10 06:31:13;;;;;;;52.43;24.80;;;1.50;99.90;;;;;;4998931;28;20182;-79
2021/12/10 06:33:39;;;;;;;53.70;25.83;;;1.50;99.90;;;;;;5000040;28;20193;-78
2021/12/10 06:36:06;;;;;;;50.07;24.90;;;1.50;99.90;;;;;;4998925;28;20261;-79
2021/12/10 06:38:32;;;;;;;53.77;26.43;;;1.60;99.90;;;;;;5000052;28;20202;-78
2021/12/10 06:40:58;;;;;;;58.27;24.70;;;1.60;99.90;;;;;;5008705;28;20628;-77
2021/12/10 06:43:26;;;;;;;52.47;25.90;;;1.70;99.90;;;;;;4999054;28;20174;-80
2021/12/10 06:45:53;;;;;;;54.70;25.93;;;1.70;99.90;;;;;;4997633;28;20179;-78
2021/12/10 06:48:21;;;;;;;49.90;24.60;;;1.70;99.90;;;;;;4999371;28;20209;-77
2021/12/10 06:50:54;;;;;;;53.50;24.17;;;1.80;99.90;;;;;;5008294;28;20496;-79
2021/12/10 06:53:22;;;;;;;44.20;23.10;;;1.90;99.90;;;;;;5000426;28;20261;-79
2021/12/10 06:55:49;;;;;;;53.00;24.87;;;2.10;99.90;;;;;;4998813;28;20260;-79
2021/12/10 06:58:15;;;;;;;51.77;24.50;;;2.10;99.90;;;;;;5022953;28;20193;-79
2021/12/10 07:00:52;;;;;;;52.17;24.57;;;2.00;99.90;;;;;;5015549;28;20174;-78
2021/12/10 07:03:22;;;;;;;52.63;24.80;;;2.10;99.90;;;;;;5016051;28;20177;-78
2021/12/10 07:05:48;;;;;;;51.80;25.30;;;2.00;99.90;;;;;;4999313;28;20182;-78
2021/12/10 07:08:15;;;;;;;54.00;25.43;;;1.90;99.90;;;;;;4998982;28;20223;-79
2021/12/10 07:10:45;;;;;;;52.00;26.63;;;1.70;99.90;;;;;;4998273;28;20233;-78
2021/12/10 07:13:12;;;;;;;57.87;26.33;;;1.70;99.90;;;;;;5015913;28;20182;-79
2021/12/10 07:15:41;;;;;;;50.87;24.87;;;1.60;99.90;;;;;;4995382;28;20186;-78
2021/12/10 07:18:09;;;;;;;55.10;25.40;;;1.80;99.90;;;;;;5005111;28;20241;-78
2021/12/10 07:20:35;;;;;;;50.53;23.63;;;1.90;99.90;;;;;;4998262;28;20185;-79
2021/12/10 07:23:01;;;;;;;53.37;25.47;;;1.90;99.90;;;;;;5014753;28;20170;-78
2021/12/10 07:25:27;;;;;;;55.97;26.30;;;2.00;99.90;;;;;;4998070;28;20199;-79
2021/12/10 07:27:53;;;;;;;55.83;26.93;;;2.00;99.90;;;;;;5017069;28;20201;-80
2021/12/10 07:30:21;;;;;;;56.93;25.87;;;2.00;99.90;;;;;;4998073;28;20202;-79
2021/12/10 07:32:48;;;;;;;53.93;26.07;;;2.00;99.90;;;;;;5015545;28;20178;-79
2021/12/10 07:35:19;;;;;;;57.40;26.57;;;2.00;99.90;;;;;;5015869;28;20178;-79
2021/12/10 07:37:44;;;;;;;56.43;26.47;;;1.90;99.90;;;;;;5003743;28;20304;-78
2021/12/10 07:40:18;;;;;;;58.50;25.50;;;1.90;99.90;;;;;;4995742;28;20259;-78
2021/12/10 07:42:44;;;;;;;53.30;25.50;;;2.00;99.90;;;;;;4990534;28;20545;-79
2021/12/10 07:45:10;;;;;;;55.30;24.67;;;1.90;99.90;;;;;;4997899;28;20633;-78
2021/12/10 07:47:37;;;;;;;55.27;26.03;;;1.90;99.90;;;;;;5015271;28;20194;-78
2021/12/10 07:50:17;;;;;;;57.23;26.20;;;1.90;99.90;;;;;;4998602;28;20185;-78
2021/12/10 07:52:55;;;;;;;57.73;26.43;;;1.90;99.90;;;;;;5015120;28;20186;-78
2021/12/10 07:55:23;;;;;;;52.63;27.20;;;1.90;99.90;;;;;;5015069;28;20264;-78
2021/12/10 07:57:51;;;;;;;59.67;28.00;;;1.80;99.90;;;;;;5013894;28;20568;-78
2021/12/10 08:00:19;;;;;;;58.50;28.00;;;1.80;99.90;;;;;;4994078;28;20178;-79
2021/12/10 08:02:45;;;;;;;55.47;26.93;;;1.70;99.90;;;;;;5002831;28;20232;-78
2021/12/10 08:05:12;;;;;;;59.50;27.17;;;1.70;99.90;;;;;;4998184;28;20178;-78
2021/12/10 08:07:49;;;;;;;59.27;27.63;;;1.60;99.90;;;;;;5014281;28;20271;-78
2021/12/10 08:10:15;;;;;;;57.33;27.00;;;1.60;99.90;;;;;;4998120;28;20177;-79
2021/12/10 08:12:42;;;;;;;57.60;26.87;;;1.60;99.90;;;;;;4998758;28;20256;-79
2021/12/10 08:15:15;;;;;;;59.47;27.47;;;1.50;99.90;;;;;;5015851;28;20178;-79
2021/12/10 08:17:42;;;;;;;56.57;26.53;;;1.50;99.90;;;;;;4998257;28;20232;-79
2021/12/10 08:20:12;;;;;;;62.80;27.43;;;1.60;99.90;;;;;;5011840;28;20213;-79
2021/12/10 08:22:38;;;;;;;57.87;26.57;;;1.60;99.90;;;;;;5013728;28;20178;-78
2021/12/10 08:25:05;;;;;;;57.97;27.83;;;1.60;99.90;;;;;;5002036;28;20189;-79
2021/12/10 08:27:31;;;;;;;57.83;27.90;;;1.60;99.90;;;;;;5018577;28;20186;-80
2021/12/10 08:30:02;;;;;;;55.87;25.87;;;1.70;99.90;;;;;;5009002;28;20348;-78
2021/12/10 08:32:29;;;;;;;54.10;25.83;;;1.70;99.90;;;;;;5001422;28;20626;-78
2021/12/10 08:34:55;;;;;;;54.50;25.70;;;1.70;99.90;;;;;;5013896;28;20661;-78
2021/12/10 08:37:31;;;;;;;53.90;25.83;;;1.80;99.90;;;;;;4994152;28;20222;-80
2021/12/10 08:39:57;;;;;;;61.30;25.10;;;1.70;99.90;;;;;;5011873;28;20166;-78
2021/12/10 08:42:26;;;;;;;58.40;26.23;;;1.80;99.90;;;;;;4997821;28;20808;-79
2021/12/10 08:44:53;;;;;;;54.83;25.00;;;1.80;99.90;;;;;;4994167;28;20325;-79
2021/12/10 08:47:18;;;;;;;56.27;25.97;;;1.80;99.90;;;;;;5016117;28;20210;-79
2021/12/10 08:49:44;;;;;;;53.50;25.87;;;1.80;99.90;;;;;;5000244;28;20182;-78
2021/12/10 08:52:11;;;;;;;48.43;24.40;;;1.80;99.90;;;;;;4999507;28;20178;-79
2021/12/10 08:54:39;;;;;;;56.27;26.23;;;1.70;99.90;;;;;;5016848;28;20182;-79
2021/12/10 08:57:06;;;;;;;54.77;24.63;;;1.70;99.90;;;;;;5013806;28;20221;-78
2021/12/10 08:59:34;;;;;;;49.70;24.23;;;1.70;99.90;;;;;;5013553;28;20198;-80
2021/12/10 09:02:03;;;;;;;53.20;24.93;;;1.70;99.90;;;;;;4996012;28;20174;-79
2021/12/10 09:04:31;;;;;;;56.70;24.23;;;1.70;99.90;;;;;;5003483;28;20178;-78
2021/12/10 09:07:02;;;;;;;55.23;24.83;;;1.80;99.90;;;;;;5019864;28;20200;-79
2021/12/10 09:09:30;;;;;;;50.47;23.57;;;1.80;99.90;;;;;;4999732;28;20273;-79
2021/12/10 09:11:59;;;;;;;48.33;24.07;;;1.90;99.90;;;;;;5018978;28;20633;-79
2021/12/10 09:14:30;;;;;;;53.77;24.87;;;2.10;99.90;;;;;;5023017;28;20208;-79
2021/12/10 09:17:13;;;;;;;49.03;22.90;;;2.10;99.90;;;;;;5024409;28;20205;-79
2021/12/10 09:19:40;;;;;;;47.83;23.00;;;2.10;99.90;;;;;;5020028;28;20216;-80
2021/12/10 09:22:09;;;;;;;49.33;23.13;;;2.10;99.90;;;;;;5020098;28;20181;-80
2021/12/10 09:24:36;;;;;;;50.10;23.73;;;2.20;99.90;;;;;;5010003;28;20600;-81
2021/12/10 10:10:29;;;;;;;;;;;;;;;;;;;;;
2021/12/10 10:33:18;;;;;;;;;;;;;;;;;;;;;
2021/12/10 10:44:15;;;;;;;34.57;17.30;;;2.70;99.90;;;;;;4995150;28;20261;-77
2021/12/10 10:46:41;;;;;;;35.73;17.47;;;2.80;99.90;;;;;;4994365;28;20215;-76
2021/12/10 10:49:28;;;;;;;32.87;17.13;;;2.90;99.90;;;;;;4992803;28;20180;-76
2021/12/10 10:51:56;;;;;;;37.27;17.90;;;2.90;99.90;;;;;;4981564;28;20176;-78
2021/12/10 10:54:30;;;;;;;37.50;17.70;;;2.80;99.90;;;;;;4974356;28;20639;-78
2021/12/10 10:56:56;;;;;;;36.40;17.60;;;2.80;99.90;;;;;;4961087;28;20202;-78
2021/12/10 10:59:26;;;;;;;34.07;17.03;;;2.80;99.90;;;;;;5004501;28;20274;-80
2021/12/10 11:02:08;;;;;;;36.67;17.37;;;2.80;99.90;;;;;;4964680;28;20176;-78
2021/12/10 11:04:49;;;;;;;35.40;17.77;;;2.90;99.90;;;;;;4978739;28;20167;-78
2021/12/10 11:07:20;;;;;;;30.77;16.47;;;3.00;99.90;;;;;;4978464;28;20275;-79
2021/12/10 11:10:01;;;;;;;31.90;16.37;;;3.10;99.90;;;;;;4994636;28;20167;-78
2021/12/10 11:12:33;;;;;;;29.27;15.17;;;3.40;99.90;;;;;;4990633;28;20186;-79
2021/12/10 11:15:05;;;;;;;35.40;17.70;;;3.60;99.90;;;;;;4977670;28;20178;-79
2021/12/10 11:17:33;;;;;;;35.73;17.63;;;3.70;99.90;;;;;;4988217;28;20207;-79
2021/12/10 11:20:08;;;;;;;31.33;16.17;;;3.70;99.90;;;;;;4963344;28;20188;-79
2021/12/10 11:22:43;;;;;;;36.67;17.77;;;3.70;99.90;;;;;;4973557;28;20184;-79
2021/12/10 11:25:17;;;;;;;39.77;18.00;;;3.70;99.90;;;;;;4948127;28;20180;-78
2021/12/10 11:27:48;;;;;;;36.00;17.83;;;3.80;99.90;;;;;;4955729;28;20215;-79
2021/12/10 11:30:24;;;;;;;30.87;17.00;;;3.80;99.90;;;;;;4969529;28;20183;-77
2021/12/10 11:33:01;;;;;;;38.10;17.67;;;3.70;99.90;;;;;;4939778;28;20171;-79
2021/12/10 11:35:37;;;;;;;36.67;17.97;;;3.70;99.90;;;;;;4944931;28;20180;-79
2021/12/10 11:38:18;;;;;;;42.30;19.93;;;3.80;99.90;;;;;;4942885;28;20240;-81
2021/12/10 11:41:22;;;;;;;33.17;18.00;;;3.90;99.90;;;;;;4950125;28;20179;-80
2021/12/10 11:44:18;;;;;;;32.07;16.23;;;4.10;99.90;;;;;;4975195;28;20197;-80
2021/12/10 11:49:38;;;;;;;33.07;16.97;;;3.90;99.90;;;;;;4972548;28;20184;-80
2021/12/10 11:52:06;;;;;;;36.47;17.77;;;4.10;99.90;;;;;;4954885;28;20184;-81
2021/12/10 11:54:36;;;;;;;30.83;16.07;;;4.30;99.90;;;;;;4983091;28;20183;-79
2021/12/10 11:57:16;;;;;;;40.67;17.73;;;4.40;99.90;;;;;;4954502;29;20239;-78
2021/12/10 11:59:48;;;;;;;34.53;16.43;;;4.30;99.90;;;;;;4969107;28;20204;-77
2021/12/10 12:02:30;;;;;;;36.23;17.83;;;4.30;99.90;;;;;;4971397;28;20552;-78
2021/12/10 12:05:12;;;;;;;29.23;14.63;;;4.30;99.90;;;;;;4985363;28;20179;-78
2021/12/10 12:07:43;;;;;;;38.33;16.97;;;4.20;99.90;;;;;;4972129;28;20558;-77
2021/12/10 12:10:22;;;;;;;34.27;17.33;;;4.30;99.90;;;;;;4969938;28;20175;-80
2021/12/10 12:12:52;;;;;;;32.67;16.53;;;4.20;99.90;;;;;;4970267;28;20176;-77
2021/12/10 12:15:24;;;;;;;36.33;16.93;;;4.10;99.90;;;;;;4952968;28;20168;-77
2021/12/10 12:17:52;;;;;;;34.93;17.47;;;4.00;99.90;;;;;;4968843;28;20299;-77
2021/12/10 12:20:47;;;;;;;33.27;16.47;;;4.00;99.90;;;;;;4982083;28;20191;-77
2021/12/10 12:26:22;;;;;;;34.00;16.50;;;3.90;99.90;;;;;;5002951;28;20290;-77
2021/12/10 12:28:54;;;;;;;36.87;17.87;;;3.80;99.90;;;;;;5008407;28;20179;-77
2021/12/10 12:31:26;;;;;;;34.23;17.33;;;3.70;99.90;;;;;;4991552;28;20181;-77
2021/12/10 12:34:14;;;;;;;38.77;17.40;;;3.60;99.90;;;;;;4986153;28;20239;-77
2021/12/10 12:36:57;;;;;;;32.80;17.97;;;3.50;99.90;;;;;;4975967;28;20630;-78
2021/12/10 12:39:40;;;;;;;30.47;16.17;;;3.50;99.90;;;;;;4991102;28;20231;-78
2021/12/10 12:42:17;;;;;;;34.90;17.77;;;3.60;99.90;;;;;;4981288;28;20178;-80
2021/12/10 12:45:01;;;;;;;36.70;17.57;;;3.70;99.90;;;;;;4988499;28;20167;-79
2021/12/10 12:47:32;;;;;;;39.93;17.77;;;3.70;99.90;;;;;;4988117;28;20213;-77
2021/12/10 12:50:13;;;;;;;37.53;17.00;;;3.90;99.90;;;;;;4968901;28;20183;-79
2021/12/10 12:52:46;;;;;;;34.90;18.07;;;3.80;99.90;;;;;;4980178;28;20241;-78
2021/12/10 12:55:49;;;;;;;35.00;18.87;;;3.70;99.90;;;;;;4989297;28;20179;-79
2021/12/10 12:58:31;;;;;;;38.00;18.50;;;3.60;99.90;;;;;;4966761;28;20281;-77
2021/12/10 13:01:32;;;;;;;36.80;17.40;;;3.70;99.90;;;;;;4971547;28;20179;-76
2021/12/10 13:04:11;;;;;;;37.03;17.97;;;4.00;99.90;;;;;;4959064;28;20274;-78
2021/12/10 13:07:24;;;;;;;37.97;20.00;;;3.90;99.90;;;;;;4970669;28;20206;-77
2021/12/10 13:09:55;;;;;;;38.80;19.23;;;3.80;99.90;;;;;;4891318;29;20554;-76
2021/12/10 13:15:15;;;;;;;38.17;18.53;;;3.60;99.90;;;;;;4981836;28;20179;-78
2021/12/10 13:17:46;;;;;;;41.63;18.67;;;3.50;99.90;;;;;;4988285;28;20206;-77
2021/12/10 13:20:20;;;;;;;47.83;19.57;;;3.40;99.90;;;;;;4975573;28;20180;-78
2021/12/10 13:22:51;;;;;;;52.87;20.07;;;3.50;99.90;;;;;;4967420;28;20187;-79
2021/12/10 13:25:27;;;;;;;37.97;18.93;;;3.70;99.90;;;;;;4974595;28;20183;-78
2021/12/10 13:27:53;;;;;;;40.73;18.47;;;3.60;99.90;;;;;;4957404;28;20289;-78
2021/12/10 13:30:24;;;;;;;34.73;18.13;;;3.50;99.90;;;;;;4969110;28;20168;-78
2021/12/10 13:32:51;;;;;;;37.13;18.50;;;3.40;99.90;;;;;;4951264;28;20179;-79
2021/12/10 13:35:19;;;;;;;40.20;19.37;;;3.30;99.90;;;;;;4984080;28;20644;-77
2021/12/10 13:37:51;;;;;;;40.40;18.47;;;3.20;99.90;;;;;;4983183;28;20207;-77
2021/12/10 13:40:17;;;;;;;36.47;18.40;;;3.10;99.90;;;;;;4975857;28;20633;-77
2021/12/10 13:42:45;;;;;;;38.80;18.37;;;3.10;99.90;;;;;;4957797;28;20287;-77
2021/12/10 13:45:11;;;;;;;44.30;19.70;;;3.20;99.90;;;;;;4967639;28;20187;-77
2021/12/10 13:47:50;;;;;;;39.20;19.03;;;3.20;99.90;;;;;;4958504;28;20195;-78
2021/12/10 13:50:22;;;;;;;36.03;19.17;;;3.20;99.90;;;;;;4974494;28;20229;-77
2021/12/10 13:52:56;;;;;;;37.73;18.20;;;3.30;99.90;;;;;;4972904;28;20608;-78
2021/12/10 13:55:50;;;;;;;38.30;18.70;;;3.20;99.90;;;;;;4960613;28;20214;-78
2021/12/10 13:58:26;;;;;;;36.57;18.33;;;3.20;99.90;;;;;;4982909;28;20263;-79
2021/12/10 14:00:58;;;;;;;37.47;18.70;;;3.10;99.90;;;;;;4977520;28;20183;-78
2021/12/10 14:03:40;;;;;;;43.97;19.10;;;3.10;99.90;;;;;;4961493;28;20179;-78
2021/12/10 14:06:06;;;;;;;42.17;19.83;;;3.00;99.90;;;;;;4977843;28;20305;-78
2021/12/10 14:09:05;;;;;;;42.20;19.57;;;3.10;99.90;;;;;;4974710;28;20176;-78
2021/12/10 14:11:50;;;;;;;40.73;19.87;;;3.10;99.90;;;;;;4976400;28;20209;-78
2021/12/10 14:14:16;;;;;;;34.67;18.00;;;3.10;99.90;;;;;;4977910;28;20249;-78
2021/12/10 14:16:54;;;;;;;40.23;19.70;;;3.00;99.90;;;;;;4992121;28;20738;-78
2021/12/10 14:19:47;;;;;;;36.87;19.00;;;3.10;99.90;;;;;;4990903;28;20203;-77
2021/12/10 14:22:16;;;;;;;38.07;19.27;;;3.10;99.90;;;;;;4966207;28;20249;-78
2021/12/10 14:24:52;;;;;;;34.20;18.27;;;3.00;99.90;;;;;;4971211;28;20179;-78
2021/12/10 14:27:24;;;;;;;43.33;19.80;;;3.00;99.90;;;;;;4973642;28;20200;-77
2021/12/10 14:30:30;;;;;;;39.87;19.33;;;3.00;99.90;;;;;;4982405;28;20186;-77
2021/12/10 14:32:58;;;;;;;37.97;17.63;;;3.00;99.90;;;;;;4896707;29;20235;-77